sensor_id;sensor_type;location;lat;lon;timestamp;pressure;altitude;pressure_sealevel;temperature;humidity
72685;BME280;61365;52.162;4.500;2023-08-17T00:00:25;102126.34;;;18.30;77.37
72685;BME280;61365;52.162;4.500;2023-08-17T00:02:52;102137.94;;;18.24;77.55
72685;BME280;61365;52.162;4.500;2023-08-17T00:05:18;102130.88;;;18.19;77.47
72685;BME280;61365;52.162;4.500;2023-08-17T00:07:44;102130.72;;;18.34;76.66
72685;BME280;61365;52.162;4.500;2023-08-17T00:10:10;102130.81;;;18.26;76.73
72685;BME280;61365;52.162;4.500;2023-08-17T00:12:37;102131.56;;;18.35;75.69
72685;BME280;61365;52.162;4.500;2023-08-17T00:15:03;102130.56;;;18.43;74.83
72685;BME280;61365;52.162;4.500;2023-08-17T00:17:29;102133.22;;;18.45;75.49
72685;BME280;61365;52.162;4.500;2023-08-17T00:19:56;102134.00;;;18.53;74.32
72685;BME280;61365;52.162;4.500;2023-08-17T00:22:22;102134.41;;;18.21;75.74
72685;BME280;61365;52.162;4.500;2023-08-17T00:24:48;102134.34;;;18.27;75.44
72685;BME280;61365;52.162;4.500;2023-08-17T00:27:14;102136.03;;;18.34;74.42
72685;BME280;61365;52.162;4.500;2023-08-17T00:29:40;102130.75;;;18.29;74.31
72685;BME280;61365;52.162;4.500;2023-08-17T00:32:06;102136.91;;;18.35;74.35
72685;BME280;61365;52.162;4.500;2023-08-17T00:34:33;102131.47;;;18.42;73.75
72685;BME280;61365;52.162;4.500;2023-08-17T00:36:59;102134.09;;;18.45;73.43
72685;BME280;61365;52.162;4.500;2023-08-17T00:39:25;102129.06;;;18.24;74.07
72685;BME280;61365;52.162;4.500;2023-08-17T00:41:51;102134.94;;;18.48;73.52
72685;BME280;61365;52.162;4.500;2023-08-17T00:44:17;102126.28;;;18.33;73.46
72685;BME280;61365;52.162;4.500;2023-08-17T00:46:43;102123.59;;;18.35;73.42
72685;BME280;61365;52.162;4.500;2023-08-17T00:49:10;102117.78;;;18.06;75.13
72685;BME280;61365;52.162;4.500;2023-08-17T00:51:37;102125.84;;;17.95;75.53
72685;BME280;61365;52.162;4.500;2023-08-17T00:54:04;102116.84;;;18.10;74.82
72685;BME280;61365;52.162;4.500;2023-08-17T00:56:30;102116.97;;;17.99;74.76
72685;BME280;61365;52.162;4.500;2023-08-17T00:58:56;102116.06;;;18.00;75.00
72685;BME280;61365;52.162;4.500;2023-08-17T01:01:23;102124.22;;;17.80;75.88
72685;BME280;61365;52.162;4.500;2023-08-17T01:03:49;102127.56;;;18.03;75.71
72685;BME280;61365;52.162;4.500;2023-08-17T01:06:15;102121.41;;;17.93;75.52
72685;BME280;61365;52.162;4.500;2023-08-17T01:08:42;102131.00;;;18.12;74.37
72685;BME280;61365;52.162;4.500;2023-08-17T01:13:49;102124.06;;;17.94;74.97
72685;BME280;61365;52.162;4.500;2023-08-17T01:16:37;102131.28;;;17.81;76.35
72685;BME280;61365;52.162;4.500;2023-08-17T01:19:08;102129.34;;;17.96;75.24
72685;BME280;61365;52.162;4.500;2023-08-17T01:21:39;102125.97;;;17.81;75.55
72685;BME280;61365;52.162;4.500;2023-08-17T01:24:13;102131.22;;;17.91;75.38
72685;BME280;61365;52.162;4.500;2023-08-17T01:26:40;102115.28;;;17.91;74.93
72685;BME280;61365;52.162;4.500;2023-08-17T01:29:06;102128.50;;;17.95;74.79
72685;BME280;61365;52.162;4.500;2023-08-17T01:31:53;102127.63;;;17.92;75.01
72685;BME280;61365;52.162;4.500;2023-08-17T01:34:27;102126.09;;;17.69;75.66
72685;BME280;61365;52.162;4.500;2023-08-17T01:36:58;102124.34;;;17.69;76.05
72685;BME280;61365;52.162;4.500;2023-08-17T01:39:27;102119.31;;;17.40;76.76
72685;BME280;61365;52.162;4.500;2023-08-17T01:42:01;102128.22;;;17.33;77.39
72685;BME280;61365;52.162;4.500;2023-08-17T01:44:28;102125.44;;;17.47;76.93
72685;BME280;61365;52.162;4.500;2023-08-17T01:46:54;102125.22;;;17.68;75.96
72685;BME280;61365;52.162;4.500;2023-08-17T01:49:20;102125.47;;;17.44;77.11
72685;BME280;61365;52.162;4.500;2023-08-17T01:51:46;102120.91;;;17.60;76.38
72685;BME280;61365;52.162;4.500;2023-08-17T01:54:12;102115.63;;;17.55;76.55
72685;BME280;61365;52.162;4.500;2023-08-17T01:56:38;102111.22;;;17.55;76.24
72685;BME280;61365;52.162;4.500;2023-08-17T01:59:04;102114.63;;;17.67;76.18
72685;BME280;61365;52.162;4.500;2023-08-17T02:01:30;102113.03;;;17.50;76.77
72685;BME280;61365;52.162;4.500;2023-08-17T02:03:57;102110.31;;;17.55;76.92
72685;BME280;61365;52.162;4.500;2023-08-17T02:06:23;102108.00;;;17.21;78.13
72685;BME280;61365;52.162;4.500;2023-08-17T02:08:49;102114.09;;;17.29;78.37
72685;BME280;61365;52.162;4.500;2023-08-17T02:11:15;102110.53;;;17.30;78.39
72685;BME280;61365;52.162;4.500;2023-08-17T02:13:41;102106.13;;;17.29;78.25
72685;BME280;61365;52.162;4.500;2023-08-17T02:16:07;102098.97;;;17.40;77.88
72685;BME280;61365;52.162;4.500;2023-08-17T02:18:33;102102.44;;;17.49;77.74
72685;BME280;61365;52.162;4.500;2023-08-17T02:21:00;102099.75;;;17.52;77.50
72685;BME280;61365;52.162;4.500;2023-08-17T02:23:26;102098.13;;;17.37;77.97
72685;BME280;61365;52.162;4.500;2023-08-17T02:25:52;102103.56;;;17.23;78.46
72685;BME280;61365;52.162;4.500;2023-08-17T02:28:18;102113.38;;;17.08;79.54
72685;BME280;61365;52.162;4.500;2023-08-17T02:30:45;102111.69;;;17.00;79.80
72685;BME280;61365;52.162;4.500;2023-08-17T02:33:12;102106.31;;;17.07;79.50
72685;BME280;61365;52.162;4.500;2023-08-17T02:35:38;102109.00;;;17.03;80.08
72685;BME280;61365;52.162;4.500;2023-08-17T02:38:04;102111.72;;;16.98;80.42
72685;BME280;61365;52.162;4.500;2023-08-17T02:40:30;102111.69;;;16.95;80.03
72685;BME280;61365;52.162;4.500;2023-08-17T02:42:56;102107.06;;;17.25;78.47
72685;BME280;61365;52.162;4.500;2023-08-17T02:45:22;102112.41;;;17.20;78.41
72685;BME280;61365;52.162;4.500;2023-08-17T02:47:49;102109.94;;;17.00;79.19
72685;BME280;61365;52.162;4.500;2023-08-17T02:50:15;102104.63;;;16.92;80.03
72685;BME280;61365;52.162;4.500;2023-08-17T02:52:42;102105.56;;;16.85;80.22
72685;BME280;61365;52.162;4.500;2023-08-17T02:55:08;102109.84;;;17.09;79.22
72685;BME280;61365;52.162;4.500;2023-08-17T02:57:34;102108.94;;;17.10;78.76
72685;BME280;61365;52.162;4.500;2023-08-17T03:00:00;102105.41;;;17.11;79.01
72685;BME280;61365;52.162;4.500;2023-08-17T03:02:26;102106.41;;;16.98;79.08
72685;BME280;61365;52.162;4.500;2023-08-17T03:04:52;102099.97;;;17.27;78.76
72685;BME280;61365;52.162;4.500;2023-08-17T03:07:19;102100.19;;;16.98;78.94
72685;BME280;61365;52.162;4.500;2023-08-17T03:09:45;102097.44;;;17.13;78.48
72685;BME280;61365;52.162;4.500;2023-08-17T03:12:11;102099.19;;;17.13;78.22
72685;BME280;61365;52.162;4.500;2023-08-17T03:14:37;102094.94;;;16.96;78.58
72685;BME280;61365;52.162;4.500;2023-08-17T03:17:03;102102.88;;;16.96;79.23
72685;BME280;61365;52.162;4.500;2023-08-17T03:19:29;102099.25;;;17.03;78.85
72685;BME280;61365;52.162;4.500;2023-08-17T03:21:55;102098.44;;;16.98;79.35
72685;BME280;61365;52.162;4.500;2023-08-17T03:24:21;102099.34;;;16.88;79.83
72685;BME280;61365;52.162;4.500;2023-08-17T03:26:48;102098.34;;;17.07;78.83
72685;BME280;61365;52.162;4.500;2023-08-17T03:29:14;102095.63;;;17.20;78.24
72685;BME280;61365;52.162;4.500;2023-08-17T03:31:40;102097.28;;;17.32;77.82
72685;BME280;61365;52.162;4.500;2023-08-17T03:34:06;102095.78;;;17.01;78.80
72685;BME280;61365;52.162;4.500;2023-08-17T03:36:32;102099.22;;;17.09;79.11
72685;BME280;61365;52.162;4.500;2023-08-17T03:38:58;102093.13;;;16.93;79.90
72685;BME280;61365;52.162;4.500;2023-08-17T03:41:24;102093.19;;;16.87;79.76
72685;BME280;61365;52.162;4.500;2023-08-17T03:43:51;102086.00;;;17.08;79.45
72685;BME280;61365;52.162;4.500;2023-08-17T03:46:17;102099.19;;;17.16;79.57
72685;BME280;61365;52.162;4.500;2023-08-17T03:48:43;102098.28;;;17.20;79.61
72685;BME280;61365;52.162;4.500;2023-08-17T03:51:09;102100.16;;;17.07;79.41
72685;BME280;61365;52.162;4.500;2023-08-17T03:53:35;102089.53;;;17.07;79.53
72685;BME280;61365;52.162;4.500;2023-08-17T03:56:01;102096.63;;;17.02;79.89
72685;BME280;61365;52.162;4.500;2023-08-17T03:58:27;102085.25;;;16.83;80.30
72685;BME280;61365;52.162;4.500;2023-08-17T04:00:58;102083.44;;;16.91;80.40
72685;BME280;61365;52.162;4.500;2023-08-17T04:03:25;102085.28;;;16.79;80.45
72685;BME280;61365;52.162;4.500;2023-08-17T04:05:51;102089.66;;;16.88;80.42
72685;BME280;61365;52.162;4.500;2023-08-17T04:08:17;102097.59;;;16.90;80.16
72685;BME280;61365;52.162;4.500;2023-08-17T04:10:43;102094.09;;;16.86;80.24
72685;BME280;61365;52.162;4.500;2023-08-17T04:13:09;102091.47;;;16.80;80.63
72685;BME280;61365;52.162;4.500;2023-08-17T04:15:35;102089.66;;;16.87;80.08
72685;BME280;61365;52.162;4.500;2023-08-17T04:18:01;102097.66;;;16.79;80.17
72685;BME280;61365;52.162;4.500;2023-08-17T04:20:28;102088.72;;;16.95;79.85
72685;BME280;61365;52.162;4.500;2023-08-17T04:22:54;102093.13;;;16.93;79.97
72685;BME280;61365;52.162;4.500;2023-08-17T04:25:20;102097.69;;;16.74;80.21
72685;BME280;61365;52.162;4.500;2023-08-17T04:27:46;102094.00;;;16.92;79.42
72685;BME280;61365;52.162;4.500;2023-08-17T04:30:12;102093.28;;;16.73;80.53
72685;BME280;61365;52.162;4.500;2023-08-17T04:32:38;102098.56;;;16.78;80.54
72685;BME280;61365;52.162;4.500;2023-08-17T04:35:05;102089.66;;;16.87;80.12
72685;BME280;61365;52.162;4.500;2023-08-17T04:37:31;102094.94;;;16.87;79.73
72685;BME280;61365;52.162;4.500;2023-08-17T04:39:57;102087.00;;;16.88;80.26
72685;BME280;61365;52.162;4.500;2023-08-17T04:42:23;102090.50;;;16.89;79.44
72685;BME280;61365;52.162;4.500;2023-08-17T04:44:50;102098.47;;;16.89;79.26
72685;BME280;61365;52.162;4.500;2023-08-17T04:47:16;102094.19;;;16.69;80.47
72685;BME280;61365;52.162;4.500;2023-08-17T04:49:42;102089.69;;;16.80;80.14
72685;BME280;61365;52.162;4.500;2023-08-17T04:52:08;102089.66;;;16.84;80.41
72685;BME280;61365;52.162;4.500;2023-08-17T04:54:35;102084.44;;;16.74;80.76
72685;BME280;61365;52.162;4.500;2023-08-17T04:57:02;102087.88;;;16.86;79.64
72685;BME280;61365;52.162;4.500;2023-08-17T04:59:30;102084.38;;;16.84;79.48
72685;BME280;61365;52.162;4.500;2023-08-17T05:01:56;102086.06;;;16.92;79.68
72685;BME280;61365;52.162;4.500;2023-08-17T05:04:22;102088.72;;;16.92;79.67
72685;BME280;61365;52.162;4.500;2023-08-17T05:06:48;102088.72;;;17.00;78.98
72685;BME280;61365;52.162;4.500;2023-08-17T05:09:14;102087.59;;;17.28;78.54
72685;BME280;61365;52.162;4.500;2023-08-17T05:11:40;102084.84;;;17.40;77.55
72685;BME280;61365;52.162;4.500;2023-08-17T05:14:06;102075.13;;;17.34;77.30
72685;BME280;61365;52.162;4.500;2023-08-17T05:16:33;102073.16;;;17.55;77.33
72685;BME280;61365;52.162;4.500;2023-08-17T05:18:59;102074.00;;;17.62;76.13
72685;BME280;61365;52.162;4.500;2023-08-17T05:21:26;102073.16;;;17.56;76.60
72685;BME280;61365;52.162;4.500;2023-08-17T05:23:52;102067.19;;;17.33;77.12
72685;BME280;61365;52.162;4.500;2023-08-17T05:26:18;102078.41;;;17.61;76.33
72685;BME280;61365;52.162;4.500;2023-08-17T05:28:44;102081.25;;;17.41;77.47
72685;BME280;61365;52.162;4.500;2023-08-17T05:31:16;102075.81;;;17.55;77.00
72685;BME280;61365;52.162;4.500;2023-08-17T05:33:42;102079.38;;;17.52;76.97
72685;BME280;61365;52.162;4.500;2023-08-17T05:36:08;102082.16;;;17.41;77.54
72685;BME280;61365;52.162;4.500;2023-08-17T05:38:34;102075.94;;;17.43;77.69
72685;BME280;61365;52.162;4.500;2023-08-17T05:41:00;102079.22;;;17.69;76.30
72685;BME280;61365;52.162;4.500;2023-08-17T05:43:27;102080.03;;;17.73;75.55
72685;BME280;61365;52.162;4.500;2023-08-17T05:45:53;102076.66;;;17.62;76.65
72685;BME280;61365;52.162;4.500;2023-08-17T05:48:20;102081.22;;;17.44;77.98
72685;BME280;61365;52.162;4.500;2023-08-17T05:50:46;102070.41;;;17.64;76.60
72685;BME280;61365;52.162;4.500;2023-08-17T05:53:13;102072.06;;;17.75;76.13
72685;BME280;61365;52.162;4.500;2023-08-17T05:55:39;102080.53;;;18.11;74.97
72685;BME280;61365;52.162;4.500;2023-08-17T05:58:05;102083.13;;;18.15;74.26
72685;BME280;61365;52.162;4.500;2023-08-17T06:00:32;102084.81;;;18.20;74.56
72685;BME280;61365;52.162;4.500;2023-08-17T06:02:58;102083.09;;;18.17;74.51
72685;BME280;61365;52.162;4.500;2023-08-17T06:05:27;102090.72;;;18.43;73.12
72685;BME280;61365;52.162;4.500;2023-08-17T06:07:54;102093.38;;;18.43;73.69
72685;BME280;61365;52.162;4.500;2023-08-17T06:10:21;102088.88;;;18.50;73.17
72685;BME280;61365;52.162;4.500;2023-08-17T06:12:56;102095.78;;;18.60;72.63
72685;BME280;61365;52.162;4.500;2023-08-17T06:15:23;102096.56;;;18.67;73.03
72685;BME280;61365;52.162;4.500;2023-08-17T06:17:50;102092.09;;;18.71;73.23
72685;BME280;61365;52.162;4.500;2023-08-17T06:20:16;102093.78;;;18.78;73.26
72685;BME280;61365;52.162;4.500;2023-08-17T06:22:43;102096.75;;;18.55;73.91
72685;BME280;61365;52.162;4.500;2023-08-17T06:25:10;102106.25;;;18.73;72.98
72685;BME280;61365;52.162;4.500;2023-08-17T06:27:37;102099.16;;;18.73;73.58
72685;BME280;61365;52.162;4.500;2023-08-17T06:30:03;102103.13;;;18.41;75.06
72685;BME280;61365;52.162;4.500;2023-08-17T06:32:30;102104.06;;;18.40;75.28
72685;BME280;61365;52.162;4.500;2023-08-17T06:34:56;102102.03;;;18.58;74.81
72685;BME280;61365;52.162;4.500;2023-08-17T06:37:23;102101.06;;;18.64;74.22
72685;BME280;61365;52.162;4.500;2023-08-17T06:39:49;102114.41;;;18.62;73.69
72685;BME280;61365;52.162;4.500;2023-08-17T06:42:15;102109.19;;;18.53;74.09
72685;BME280;61365;52.162;4.500;2023-08-17T06:44:41;102104.81;;;18.50;74.14
72685;BME280;61365;52.162;4.500;2023-08-17T06:47:08;102109.94;;;18.64;73.72
72685;BME280;61365;52.162;4.500;2023-08-17T06:49:34;102115.22;;;18.66;74.00
72685;BME280;61365;52.162;4.500;2023-08-17T06:52:01;102114.94;;;18.86;73.24
72685;BME280;61365;52.162;4.500;2023-08-17T06:54:27;102112.41;;;18.76;73.82
72685;BME280;61365;52.162;4.500;2023-08-17T06:56:53;102110.50;;;18.85;73.51
72685;BME280;61365;52.162;4.500;2023-08-17T06:59:19;102111.31;;;18.90;73.18
72685;BME280;61365;52.162;4.500;2023-08-17T07:01:45;102102.94;;;19.16;72.40
72685;BME280;61365;52.162;4.500;2023-08-17T07:04:11;102101.50;;;18.92;73.40
72685;BME280;61365;52.162;4.500;2023-08-17T07:06:37;102104.97;;;19.00;72.71
72685;BME280;61365;52.162;4.500;2023-08-17T07:09:04;102109.69;;;19.36;71.26
72685;BME280;61365;52.162;4.500;2023-08-17T07:11:30;102102.34;;;19.49;70.61
72685;BME280;61365;52.162;4.500;2023-08-17T07:13:57;102098.88;;;18.90;72.84
72685;BME280;61365;52.162;4.500;2023-08-17T07:16:23;102103.31;;;18.91;73.57
72685;BME280;61365;52.162;4.500;2023-08-17T07:18:49;102099.69;;;18.94;71.96
72685;BME280;61365;52.162;4.500;2023-08-17T07:21:15;102108.78;;;19.37;70.47
72685;BME280;61365;52.162;4.500;2023-08-17T07:23:43;102095.66;;;19.28;70.70
72685;BME280;61365;52.162;4.500;2023-08-17T07:26:10;102096.88;;;19.58;69.64
72685;BME280;61365;52.162;4.500;2023-08-17T07:28:36;102104.25;;;19.42;70.22
72685;BME280;61365;52.162;4.500;2023-08-17T07:31:03;102095.44;;;19.86;69.12
72685;BME280;61365;52.162;4.500;2023-08-17T07:33:31;102098.53;;;20.11;67.57
72685;BME280;61365;52.162;4.500;2023-08-17T07:35:57;102103.13;;;20.03;67.07
72685;BME280;61365;52.162;4.500;2023-08-17T07:38:24;102108.59;;;19.49;70.14
72685;BME280;61365;52.162;4.500;2023-08-17T07:40:50;102109.28;;;19.58;69.53
72685;BME280;61365;52.162;4.500;2023-08-17T07:43:16;102114.09;;;19.39;69.57
72685;BME280;61365;52.162;4.500;2023-08-17T07:45:42;102118.84;;;19.70;69.25
72685;BME280;61365;52.162;4.500;2023-08-17T07:48:08;102104.66;;;19.68;68.55
72685;BME280;61365;52.162;4.500;2023-08-17T07:50:34;102101.75;;;20.27;67.89
72685;BME280;61365;52.162;4.500;2023-08-17T07:53:00;102106.56;;;20.50;66.68
72685;BME280;61365;52.162;4.500;2023-08-17T07:55:27;102093.34;;;20.85;66.01
72685;BME280;61365;52.162;4.500;2023-08-17T07:57:53;102099.72;;;21.15;64.29
72685;BME280;61365;52.162;4.500;2023-08-17T08:00:19;102087.66;;;21.35;64.47
72685;BME280;61365;52.162;4.500;2023-08-17T08:02:46;102095.78;;;21.97;62.52
72685;BME280;61365;52.162;4.500;2023-08-17T08:05:12;102102.81;;;22.88;58.89
72685;BME280;61365;52.162;4.500;2023-08-17T08:07:39;102102.72;;;22.91;58.96
72685;BME280;61365;52.162;4.500;2023-08-17T08:10:06;102089.22;;;22.37;60.25
72685;BME280;61365;52.162;4.500;2023-08-17T08:12:33;102096.94;;;22.48;58.78
72685;BME280;61365;52.162;4.500;2023-08-17T08:14:59;102098.00;;;22.44;59.02
72685;BME280;61365;52.162;4.500;2023-08-17T08:17:25;102096.19;;;21.83;60.28
72685;BME280;61365;52.162;4.500;2023-08-17T08:19:51;102086.47;;;21.80;60.89
72685;BME280;61365;52.162;4.500;2023-08-17T08:22:18;102090.91;;;21.12;63.73
72685;BME280;61365;52.162;4.500;2023-08-17T08:24:44;102077.44;;;21.51;63.05
72685;BME280;61365;52.162;4.500;2023-08-17T08:27:10;102076.84;;;22.04;61.15
72685;BME280;61365;52.162;4.500;2023-08-17T08:29:36;102085.69;;;22.37;59.21
72685;BME280;61365;52.162;4.500;2023-08-17T08:32:03;102085.63;;;22.08;60.03
72685;BME280;61365;52.162;4.500;2023-08-17T08:34:30;102079.06;;;22.78;58.31
72685;BME280;61365;52.162;4.500;2023-08-17T08:36:56;102082.63;;;22.20;59.56
72685;BME280;61365;52.162;4.500;2023-08-17T08:39:24;102082.31;;;22.88;57.99
72685;BME280;61365;52.162;4.500;2023-08-17T08:41:51;102073.25;;;22.35;59.46
72685;BME280;61365;52.162;4.500;2023-08-17T08:44:17;102068.75;;;23.20;57.70
72685;BME280;61365;52.162;4.500;2023-08-17T08:46:44;102070.38;;;22.43;59.35
72685;BME280;61365;52.162;4.500;2023-08-17T08:49:11;102066.97;;;22.67;58.42
72685;BME280;61365;52.162;4.500;2023-08-17T08:51:39;102069.59;;;22.08;59.89
72685;BME280;61365;52.162;4.500;2023-08-17T08:54:11;102056.47;;;22.00;60.09
72685;BME280;61365;52.162;4.500;2023-08-17T08:56:40;102071.97;;;22.19;59.61
72685;BME280;61365;52.162;4.500;2023-08-17T08:59:08;102061.88;;;22.29;59.51
72685;BME280;61365;52.162;4.500;2023-08-17T09:01:36;102070.41;;;22.70;57.44
72685;BME280;61365;52.162;4.500;2023-08-17T09:04:02;102059.59;;;22.73;57.22
72685;BME280;61365;52.162;4.500;2023-08-17T09:06:30;102063.78;;;22.82;57.45
72685;BME280;61365;52.162;4.500;2023-08-17T09:08:57;102056.75;;;23.05;57.16
72685;BME280;61365;52.162;4.500;2023-08-17T09:11:23;102051.72;;;23.22;57.30
72685;BME280;61365;52.162;4.500;2023-08-17T09:13:50;102053.94;;;22.56;58.19
72685;BME280;61365;52.162;4.500;2023-08-17T09:16:18;102058.47;;;22.81;57.39
72685;BME280;61365;52.162;4.500;2023-08-17T09:18:44;102057.88;;;22.98;56.99
72685;BME280;61365;52.162;4.500;2023-08-17T09:21:19;102044.91;;;22.00;59.83
72685;BME280;61365;52.162;4.500;2023-08-17T09:23:55;102049.06;;;21.80;60.59
72685;BME280;61365;52.162;4.500;2023-08-17T09:26:22;102060.91;;;22.01;60.91
72685;BME280;61365;52.162;4.500;2023-08-17T09:28:51;102061.72;;;22.03;60.05
72685;BME280;61365;52.162;4.500;2023-08-17T09:31:20;102055.22;;;22.12;60.08
72685;BME280;61365;52.162;4.500;2023-08-17T09:33:50;102052.09;;;21.98;60.30
72685;BME280;61365;52.162;4.500;2023-08-17T09:36:20;102044.34;;;22.18;60.31
72685;BME280;61365;52.162;4.500;2023-08-17T09:38:51;102038.56;;;22.04;59.95
72685;BME280;61365;52.162;4.500;2023-08-17T09:41:17;102050.03;;;22.08;59.60
72685;BME280;61365;52.162;4.500;2023-08-17T09:43:45;102033.66;;;21.88;61.09
72685;BME280;61365;52.162;4.500;2023-08-17T09:46:12;102029.31;;;21.84;61.24
72685;BME280;61365;52.162;4.500;2023-08-17T09:48:38;102024.78;;;21.88;61.50
72685;BME280;61365;52.162;4.500;2023-08-17T09:51:05;102021.03;;;21.94;60.55
72685;BME280;61365;52.162;4.500;2023-08-17T09:53:35;102028.81;;;21.71;60.63
72685;BME280;61365;52.162;4.500;2023-08-17T09:56:04;102023.47;;;22.01;60.77
72685;BME280;61365;52.162;4.500;2023-08-17T09:58:36;102013.03;;;21.94;61.61
72685;BME280;61365;52.162;4.500;2023-08-17T10:01:04;102023.97;;;21.84;60.09
72685;BME280;61365;52.162;4.500;2023-08-17T10:03:33;102025.88;;;22.11;60.62
72685;BME280;61365;52.162;4.500;2023-08-17T10:06:03;102027.38;;;22.19;59.74
72685;BME280;61365;52.162;4.500;2023-08-17T10:08:36;102038.47;;;22.66;58.42
72685;BME280;61365;52.162;4.500;2023-08-17T10:11:09;102027.50;;;22.73;57.91
72685;BME280;61365;52.162;4.500;2023-08-17T10:16:28;102033.56;;;22.22;59.68
72685;BME280;61365;52.162;4.500;2023-08-17T10:22:11;102012.41;;;23.48;56.46
72685;BME280;61365;52.162;4.500;2023-08-17T10:24:41;102015.06;;;23.50;56.88
72685;BME280;61365;52.162;4.500;2023-08-17T10:27:09;102013.31;;;23.73;56.27
72685;BME280;61365;52.162;4.500;2023-08-17T10:29:36;102019.31;;;22.78;57.74
72685;BME280;61365;52.162;4.500;2023-08-17T10:32:05;102013.81;;;23.08;57.11
72685;BME280;61365;52.162;4.500;2023-08-17T10:34:33;102010.59;;;22.98;56.75
72685;BME280;61365;52.162;4.500;2023-08-17T10:37:00;102018.94;;;22.62;58.09
72685;BME280;61365;52.162;4.500;2023-08-17T10:39:28;102015.22;;;22.68;57.48
72685;BME280;61365;52.162;4.500;2023-08-17T10:41:55;102016.44;;;22.57;58.34
72685;BME280;61365;52.162;4.500;2023-08-17T10:52:34;102013.41;;;23.20;56.67
72685;BME280;61365;52.162;4.500;2023-08-17T10:55:02;102007.00;;;23.50;56.11
72685;BME280;61365;52.162;4.500;2023-08-17T10:57:37;102022.63;;;23.86;54.90
72685;BME280;61365;52.162;4.500;2023-08-17T11:00:13;102022.75;;;23.34;55.89
72685;BME280;61365;52.162;4.500;2023-08-17T11:02:51;102007.16;;;23.20;56.24
72685;BME280;61365;52.162;4.500;2023-08-17T11:08:03;102012.84;;;22.84;57.69
72685;BME280;61365;52.162;4.500;2023-08-17T11:10:31;102003.44;;;22.72;59.23
72685;BME280;61365;52.162;4.500;2023-08-17T11:12:57;102001.19;;;22.86;56.85
72685;BME280;61365;52.162;4.500;2023-08-17T11:18:05;101989.88;;;23.30;56.28
72685;BME280;61365;52.162;4.500;2023-08-17T11:20:32;102005.56;;;22.89;57.23
72685;BME280;61365;52.162;4.500;2023-08-17T11:22:59;101989.56;;;22.87;58.61
72685;BME280;61365;52.162;4.500;2023-08-17T11:25:26;101989.09;;;23.01;56.93
72685;BME280;61365;52.162;4.500;2023-08-17T11:27:56;101993.19;;;22.59;57.61
72685;BME280;61365;52.162;4.500;2023-08-17T11:30:22;101997.69;;;22.57;59.17
72685;BME280;61365;52.162;4.500;2023-08-17T11:32:49;102000.16;;;22.90;57.95
72685;BME280;61365;52.162;4.500;2023-08-17T11:35:17;102003.13;;;22.56;59.01
72685;BME280;61365;52.162;4.500;2023-08-17T11:37:43;101999.75;;;22.76;59.27
72685;BME280;61365;52.162;4.500;2023-08-17T11:40:12;101990.72;;;23.05;57.78
72685;BME280;61365;52.162;4.500;2023-08-17T11:42:39;101993.09;;;22.88;58.44
72685;BME280;61365;52.162;4.500;2023-08-17T11:45:06;101996.31;;;22.98;59.19
72685;BME280;61365;52.162;4.500;2023-08-17T11:47:38;101985.06;;;23.64;57.57
72685;BME280;61365;52.162;4.500;2023-08-17T11:50:07;101986.28;;;23.31;57.21
72685;BME280;61365;52.162;4.500;2023-08-17T11:52:35;101990.59;;;22.83;58.10
72685;BME280;61365;52.162;4.500;2023-08-17T11:55:05;101984.09;;;22.90;58.01
72685;BME280;61365;52.162;4.500;2023-08-17T11:57:32;101988.06;;;23.05;58.10
72685;BME280;61365;52.162;4.500;2023-08-17T11:59:59;101989.41;;;22.92;58.74
72685;BME280;61365;52.162;4.500;2023-08-17T12:02:27;101991.38;;;23.12;58.78
72685;BME280;61365;52.162;4.500;2023-08-17T12:04:54;101988.25;;;22.99;58.47
72685;BME280;61365;52.162;4.500;2023-08-17T12:07:22;101981.69;;;23.33;57.22
72685;BME280;61365;52.162;4.500;2023-08-17T12:09:50;101979.41;;;23.72;56.07
72685;BME280;61365;52.162;4.500;2023-08-17T12:12:17;101984.53;;;23.54;57.48
72685;BME280;61365;52.162;4.500;2023-08-17T12:14:46;101979.72;;;23.86;55.60
72685;BME280;61365;52.162;4.500;2023-08-17T12:17:20;101980.63;;;23.63;57.00
72685;BME280;61365;52.162;4.500;2023-08-17T12:19:53;101986.03;;;24.09;56.04
72685;BME280;61365;52.162;4.500;2023-08-17T12:22:22;101975.84;;;23.47;56.83
72685;BME280;61365;52.162;4.500;2023-08-17T12:24:50;101978.13;;;23.82;56.60
72685;BME280;61365;52.162;4.500;2023-08-17T12:27:16;101978.81;;;23.63;56.64
72685;BME280;61365;52.162;4.500;2023-08-17T12:29:47;101978.59;;;23.46;57.22
72685;BME280;61365;52.162;4.500;2023-08-17T12:32:17;101967.69;;;23.50;58.60
72685;BME280;61365;52.162;4.500;2023-08-17T12:34:45;101966.53;;;23.81;56.93
72685;BME280;61365;52.162;4.500;2023-08-17T12:37:11;101970.38;;;23.98;56.68
72685;BME280;61365;52.162;4.500;2023-08-17T12:39:38;101970.25;;;24.01;55.81
72685;BME280;61365;52.162;4.500;2023-08-17T12:42:04;101975.81;;;23.23;57.06
72685;BME280;61365;52.162;4.500;2023-08-17T12:44:31;101970.47;;;22.97;58.75
72685;BME280;61365;52.162;4.500;2023-08-17T12:46:57;101966.53;;;23.34;57.73
72685;BME280;61365;52.162;4.500;2023-08-17T12:49:23;101968.00;;;23.17;58.28
72685;BME280;61365;52.162;4.500;2023-08-17T12:51:49;101960.69;;;23.22;58.88
72685;BME280;61365;52.162;4.500;2023-08-17T12:54:16;101978.41;;;23.00;58.33
72685;BME280;61365;52.162;4.500;2023-08-17T12:56:42;101974.31;;;22.89;58.22
72685;BME280;61365;52.162;4.500;2023-08-17T12:59:10;101975.66;;;23.28;58.52
72685;BME280;61365;52.162;4.500;2023-08-17T13:01:36;101970.38;;;22.47;59.84
72685;BME280;61365;52.162;4.500;2023-08-17T13:04:02;101960.34;;;22.81;58.99
72685;BME280;61365;52.162;4.500;2023-08-17T13:06:28;101969.19;;;22.83;59.09
72685;BME280;61365;52.162;4.500;2023-08-17T13:08:54;101965.84;;;23.02;58.28
72685;BME280;61365;52.162;4.500;2023-08-17T13:11:23;101958.47;;;23.08;59.14